createdAt,value
2022-12-11T00:00:08.404Z,12.02
2022-12-11T00:02:35.207Z,12.38
2022-12-11T00:05:02.144Z,10.93
2022-12-11T00:07:28.885Z,12.10
2022-12-11T00:09:55.549Z,11.23
2022-12-11T00:12:22.650Z,10.35
2022-12-11T00:14:49.406Z,10.40
2022-12-11T00:17:16.053Z,10.85
2022-12-11T00:19:42.700Z,9.18
2022-12-11T00:22:09.562Z,10.23
2022-12-11T00:24:36.215Z,11.05
2022-12-11T00:27:02.924Z,10.90
2022-12-11T00:29:29.694Z,10.68
2022-12-11T00:31:56.513Z,9.70
2022-12-11T00:34:23.233Z,10.20
2022-12-11T00:36:50.000Z,11.18
2022-12-11T00:39:16.737Z,10.95
2022-12-11T00:41:43.606Z,10.43
2022-12-11T00:44:10.510Z,8.95
2022-12-11T00:46:37.596Z,10.93
2022-12-11T00:49:04.489Z,10.73
2022-12-11T00:51:31.316Z,11.40
2022-12-11T00:53:57.964Z,10.73
2022-12-11T00:56:25.451Z,10.32
2022-12-11T00:58:52.391Z,9.68
2022-12-11T01:01:22.952Z,9.73
2022-12-11T01:03:50.092Z,9.65
2022-12-11T01:06:20.845Z,8.05
2022-12-11T01:08:48.241Z,8.80
2022-12-11T01:11:16.621Z,10.45
2022-12-11T01:13:43.596Z,8.38
2022-12-11T01:16:13.933Z,9.85
2022-12-11T01:18:41.078Z,9.52
2022-12-11T01:21:10.368Z,11.02
2022-12-11T01:23:37.337Z,9.90
2022-12-11T01:26:09.699Z,8.73
2022-12-11T01:28:36.957Z,7.63
2022-12-11T01:31:08.526Z,8.48
2022-12-11T01:33:35.219Z,9.60
2022-12-11T01:36:02.202Z,8.90
2022-12-11T01:38:28.828Z,8.55
2022-12-11T01:40:55.463Z,7.55
2022-12-11T01:43:22.181Z,7.85
2022-12-11T01:45:49.312Z,7.75
2022-12-11T01:48:28.841Z,7.75
2022-12-11T01:51:00.171Z,9.07
2022-12-11T01:53:31.825Z,8.07
2022-12-11T01:55:59.335Z,7.97
2022-12-11T01:58:34.128Z,8.32
2022-12-11T02:01:03.264Z,7.00
2022-12-11T02:03:30.045Z,7.30
2022-12-11T02:06:00.561Z,7.93
2022-12-11T02:08:27.383Z,8.10
2022-12-11T02:11:21.888Z,8.27
2022-12-11T02:14:13.205Z,9.25
2022-12-11T02:16:57.598Z,7.53
2022-12-11T02:20:01.672Z,9.80
2022-12-11T02:22:47.774Z,10.07
2022-12-11T02:25:46.418Z,8.02
2022-12-11T02:28:16.338Z,7.45
2022-12-11T02:30:49.554Z,8.27
2022-12-11T02:33:20.497Z,8.70
2022-12-11T02:35:49.215Z,9.07
2022-12-11T02:38:24.527Z,8.80
2022-12-11T02:40:53.333Z,8.45
2022-12-11T02:43:22.443Z,8.73
2022-12-11T02:45:51.696Z,8.10
2022-12-11T02:48:20.686Z,7.60
2022-12-11T02:50:51.457Z,8.80
2022-12-11T02:53:24.046Z,7.00
2022-12-11T02:55:57.004Z,7.00
2022-12-11T02:58:31.148Z,8.77
2022-12-11T03:00:57.976Z,7.72
2022-12-11T03:03:25.015Z,8.05
2022-12-11T03:05:51.741Z,8.48
2022-12-11T03:08:18.814Z,7.68
2022-12-11T03:10:46.545Z,6.88
2022-12-11T03:13:17.042Z,7.35
2022-12-11T03:15:55.933Z,7.47
2022-12-11T03:18:22.592Z,6.85
2022-12-11T03:21:09.410Z,6.00
2022-12-11T03:23:55.465Z,7.47
2022-12-11T03:26:24.082Z,7.35
2022-12-11T03:29:04.334Z,8.63
2022-12-11T03:31:39.118Z,7.45
2022-12-11T03:34:18.241Z,7.10
2022-12-11T03:36:47.786Z,8.02
2022-12-11T03:39:23.274Z,8.80
2022-12-11T03:41:52.004Z,6.32
2022-12-11T03:44:21.042Z,7.97
2022-12-11T03:46:50.599Z,7.60
2022-12-11T03:49:22.951Z,6.20
2022-12-11T03:51:56.213Z,5.80
2022-12-11T03:54:24.892Z,6.88
2022-12-11T03:56:55.065Z,6.38
2022-12-11T03:59:22.045Z,7.53
2022-12-11T04:01:48.774Z,7.93
2022-12-11T04:04:15.593Z,7.47
2022-12-11T04:06:42.419Z,6.38
2022-12-11T04:09:09.190Z,5.75
2022-12-11T04:11:35.966Z,6.28
2022-12-11T04:14:22.688Z,8.18
2022-12-11T04:16:49.374Z,7.43
2022-12-11T04:19:35.053Z,5.90
2022-12-11T04:22:20.161Z,6.20
2022-12-11T04:24:50.569Z,5.75
2022-12-11T04:27:38.266Z,6.30
2022-12-11T04:30:08.915Z,5.68
2022-12-11T04:32:35.633Z,6.93
2022-12-11T04:35:02.536Z,7.13
2022-12-11T04:37:29.418Z,6.55
2022-12-11T04:39:56.091Z,7.47
2022-12-11T04:42:22.794Z,5.95
2022-12-11T04:44:49.633Z,7.10
2022-12-11T04:47:16.659Z,7.55
2022-12-11T04:49:43.579Z,7.18
2022-12-11T04:52:10.607Z,6.57
2022-12-11T04:54:37.276Z,7.65
2022-12-11T04:57:03.988Z,6.97
2022-12-11T04:59:33.178Z,6.68
2022-12-11T05:01:59.923Z,6.32
2022-12-11T05:04:32.105Z,6.88
2022-12-11T05:06:59.215Z,6.30
2022-12-11T05:09:27.186Z,6.28
2022-12-11T05:11:54.648Z,7.22
2022-12-11T05:14:22.053Z,7.70
2022-12-11T05:16:49.105Z,7.82
2022-12-11T05:19:16.813Z,7.72
2022-12-11T05:21:43.624Z,7.35
2022-12-11T05:24:10.348Z,7.90
2022-12-11T05:26:37.096Z,7.10
2022-12-11T05:29:04.010Z,7.47
2022-12-11T05:31:30.731Z,7.82
2022-12-11T05:33:57.451Z,7.50
2022-12-11T05:36:27.037Z,7.95
2022-12-11T05:38:54.379Z,7.05
2022-12-11T05:41:25.382Z,7.95
2022-12-11T05:43:52.471Z,6.85
2022-12-11T05:46:22.366Z,6.78
2022-12-11T05:48:51.362Z,7.30
2022-12-11T05:51:18.811Z,6.55
2022-12-11T05:53:47.144Z,6.72
2022-12-11T05:56:16.930Z,7.10
2022-12-11T05:58:44.634Z,6.93
2022-12-11T06:01:14.717Z,7.40
2022-12-11T06:03:41.824Z,6.80
2022-12-11T06:06:08.862Z,7.50
2022-12-11T06:08:35.718Z,6.70
2022-12-11T06:11:03.504Z,8.13
2022-12-11T06:13:30.680Z,7.10
2022-12-11T06:16:04.456Z,8.35
2022-12-11T06:18:31.798Z,7.78
2022-12-11T06:20:58.509Z,6.43
2022-12-11T06:23:25.153Z,6.80
2022-12-11T06:28:27.901Z,6.38
2022-12-11T06:30:54.591Z,6.55
2022-12-11T06:35:57.154Z,7.90
2022-12-11T06:38:24.787Z,6.53
2022-12-11T06:40:59.682Z,6.13
2022-12-11T06:43:26.454Z,6.63
2022-12-11T06:45:53.257Z,5.82
2022-12-11T06:48:20.824Z,7.43
2022-12-11T06:50:47.573Z,6.82
2022-12-11T06:53:15.417Z,7.13
2022-12-11T06:55:43.283Z,6.05
2022-12-11T06:58:11.229Z,6.13
2022-12-11T07:00:38.965Z,6.68
2022-12-11T07:03:06.694Z,7.78
2022-12-11T07:05:34.124Z,7.45
2022-12-11T07:08:01.364Z,5.57
2022-12-11T07:10:28.148Z,5.70
2022-12-11T07:12:55.015Z,5.85
2022-12-11T07:15:21.671Z,6.38
2022-12-11T07:17:48.451Z,6.82
2022-12-11T07:20:15.639Z,6.97
2022-12-11T07:22:46.383Z,7.00
2022-12-11T07:25:13.931Z,6.20
2022-12-11T07:27:41.652Z,8.05
2022-12-11T07:30:09.712Z,5.55
2022-12-11T07:32:36.717Z,5.78
2022-12-11T07:35:04.197Z,6.07
2022-12-11T07:37:30.889Z,6.30
2022-12-11T07:39:57.577Z,5.80
2022-12-11T07:42:24.274Z,4.88
2022-12-11T07:44:51.007Z,6.18
2022-12-11T07:47:17.770Z,4.97
2022-12-11T07:49:44.450Z,5.78
2022-12-11T07:52:11.308Z,4.40
2022-12-11T07:54:38.173Z,5.22
2022-12-11T07:57:06.257Z,6.15
2022-12-11T07:59:34.769Z,6.03
2022-12-11T08:02:01.532Z,6.20
2022-12-11T08:07:03.625Z,5.50
2022-12-11T08:09:30.488Z,5.63
2022-12-11T08:11:57.149Z,5.35
2022-12-11T08:14:23.814Z,5.97
2022-12-11T08:16:50.511Z,5.55
2022-12-11T08:19:18.120Z,5.68
2022-12-11T08:21:45.253Z,7.05
2022-12-11T08:24:11.888Z,5.70
2022-12-11T08:26:38.693Z,7.57
2022-12-11T08:29:05.650Z,7.47
2022-12-11T08:31:33.070Z,7.60
2022-12-11T08:33:59.895Z,7.15
2022-12-11T08:36:26.906Z,7.57
2022-12-11T08:38:55.946Z,8.05
2022-12-11T08:41:28.554Z,7.70
2022-12-11T08:43:57.762Z,7.88
2022-12-11T08:46:33.026Z,6.72
2022-12-11T08:49:00.226Z,6.15
2022-12-11T09:07:25.616Z,6.78
2022-12-11T09:09:54.825Z,5.40
2022-12-11T09:12:21.945Z,6.88
2022-12-11T09:14:48.655Z,6.32
2022-12-11T09:17:15.364Z,5.82
2022-12-11T09:19:41.995Z,7.70
2022-12-11T09:22:11.279Z,7.45
2022-12-11T09:24:38.669Z,6.88
2022-12-11T09:45:55.386Z,6.85
2022-12-11T09:48:24.482Z,7.57
2022-12-11T09:50:55.255Z,6.85
2022-12-11T09:53:35.946Z,6.85
2022-12-11T09:56:21.313Z,8.10
2022-12-11T09:58:50.675Z,6.68
2022-12-11T10:01:22.688Z,7.22
2022-12-11T10:04:07.546Z,7.45
2022-12-11T10:06:46.614Z,7.40
2022-12-11T10:09:24.424Z,7.03
2022-12-11T10:11:56.676Z,6.78
2022-12-11T10:14:43.926Z,8.18
2022-12-11T10:17:20.458Z,8.43
2022-12-11T10:19:48.334Z,7.20
2022-12-11T10:22:25.086Z,8.95
2022-12-11T10:25:14.501Z,7.72
2022-12-11T10:27:41.842Z,7.30
2022-12-11T10:30:15.100Z,7.68
2022-12-11T10:32:44.823Z,9.77
2022-12-11T10:35:38.080Z,9.52
2022-12-11T10:38:13.336Z,8.18
2022-12-11T10:40:50.659Z,7.78
2022-12-11T10:43:17.561Z,7.43
2022-12-11T10:45:54.486Z,6.93
2022-12-11T10:48:22.299Z,7.90
2022-12-11T10:51:05.438Z,9.23
2022-12-11T10:53:34.509Z,7.32
2022-12-11T10:58:41.425Z,7.60
2022-12-11T11:01:18.900Z,7.63
2022-12-11T11:06:33.652Z,7.25
2022-12-11T11:09:02.033Z,7.25
2022-12-11T11:11:35.331Z,6.38
2022-12-11T11:14:07.564Z,6.88
2022-12-11T11:16:37.872Z,8.80
2022-12-11T11:19:06.016Z,8.63
2022-12-11T11:21:34.671Z,8.32
2022-12-11T11:24:01.469Z,8.38
2022-12-11T11:27:04.334Z,6.68
2022-12-11T11:29:28.805Z,7.88
2022-12-11T11:31:55.656Z,7.75
2022-12-11T11:34:22.531Z,7.80
2022-12-11T11:48:30.092Z,8.43
2022-12-11T11:50:58.456Z,8.07
2022-12-11T11:53:27.573Z,8.25
2022-12-11T11:56:18.939Z,7.70
2022-12-11T11:59:02.517Z,8.10
2022-12-11T12:01:33.496Z,8.38
2022-12-11T12:04:11.268Z,9.25
2022-12-11T12:47:17.050Z,8.40
2022-12-11T12:49:47.179Z,8.48
2022-12-11T12:52:18.691Z,8.35
2022-12-11T12:55:09.854Z,8.32
2022-12-11T12:57:39.353Z,8.77
2022-12-11T13:00:13.045Z,9.40
2022-12-11T13:02:51.089Z,8.70
2022-12-11T13:05:26.791Z,7.68
2022-12-11T13:07:59.570Z,7.65
2022-12-11T13:10:33.297Z,7.30
2022-12-11T13:13:01.678Z,8.63
2022-12-11T13:15:44.608Z,8.55
2022-12-11T13:18:35.809Z,8.52
2022-12-11T13:21:23.897Z,9.25
2022-12-11T13:23:52.131Z,9.98
2022-12-11T13:26:32.881Z,8.90
2022-12-11T13:28:59.915Z,9.02
2022-12-11T13:31:36.366Z,9.82
2022-12-11T13:34:14.692Z,10.82
2022-12-11T13:36:46.525Z,10.18
2022-12-11T13:39:35.142Z,10.07
2022-12-11T13:42:10.871Z,10.40
2022-12-11T13:44:42.857Z,9.63
2022-12-11T13:47:16.696Z,9.70
2022-12-11T13:49:47.928Z,8.23
2022-12-11T13:52:23.561Z,7.60
2022-12-11T13:54:53.332Z,8.27
2022-12-11T13:57:26.037Z,7.60
2022-12-11T13:59:55.784Z,8.68
2022-12-11T14:02:25.708Z,8.13
2022-12-11T14:05:10.747Z,8.43
2022-12-11T14:07:49.171Z,9.68
2022-12-11T14:10:23.936Z,9.10
2022-12-11T14:13:06.712Z,9.05
2022-12-11T14:15:35.985Z,10.00
2022-12-11T14:18:05.664Z,10.05
2022-12-11T14:20:34.224Z,10.10
2022-12-11T14:23:23.955Z,9.25
2022-12-11T14:25:57.383Z,9.45
2022-12-11T14:28:27.837Z,8.75
2022-12-11T14:30:59.877Z,9.63
2022-12-11T14:33:32.601Z,9.60
2022-12-11T14:36:00.600Z,9.82
2022-12-11T14:38:31.147Z,9.98
2022-12-11T14:41:03.311Z,9.82
2022-12-11T14:43:35.309Z,10.88
2022-12-11T14:46:11.237Z,9.88
2022-12-11T14:51:17.424Z,7.93
2022-12-11T14:53:47.795Z,9.25
2022-12-11T14:56:24.800Z,8.75
2022-12-11T14:58:54.434Z,10.05
2022-12-11T15:01:28.382Z,8.13
2022-12-11T15:04:19.741Z,8.45
2022-12-11T15:06:48.874Z,7.85
2022-12-11T15:14:33.741Z,8.07
2022-12-11T15:17:00.732Z,7.70
2022-12-11T15:19:27.507Z,9.15
2022-12-11T15:24:46.597Z,11.27
2022-12-11T15:27:22.301Z,11.27
2022-12-11T15:29:50.662Z,10.50
2022-12-11T15:32:19.566Z,8.95
2022-12-11T15:34:46.161Z,9.23
2022-12-11T15:37:21.715Z,9.48
2022-12-11T15:39:48.460Z,10.75
2022-12-11T15:42:20.936Z,12.27
2022-12-11T15:44:47.762Z,12.63
2022-12-11T15:47:16.023Z,10.88
2022-12-11T15:49:45.751Z,9.77
2022-12-11T15:52:12.444Z,11.23
2022-12-11T15:54:39.049Z,8.02
2022-12-11T15:57:13.316Z,8.07
2022-12-11T15:59:40.046Z,9.00
2022-12-11T16:02:12.999Z,11.15
2022-12-11T16:04:40.349Z,9.65
2022-12-11T16:07:25.761Z,9.15
2022-12-11T16:09:52.752Z,9.50
2022-12-11T16:12:20.555Z,9.40
2022-12-11T16:14:47.607Z,9.80
2022-12-11T16:17:15.859Z,10.02
2022-12-11T16:19:49.560Z,9.52
2022-12-11T16:22:16.488Z,10.30
2022-12-11T16:24:43.315Z,8.70
2022-12-11T17:26:30.094Z,12.37
2022-12-11T17:28:57.694Z,10.13
2022-12-11T17:31:24.951Z,10.80
2022-12-11T17:33:51.887Z,11.27
2022-12-11T17:36:21.000Z,9.73
2022-12-11T17:38:49.809Z,8.98
2022-12-11T17:41:20.681Z,9.43
2022-12-11T17:43:54.608Z,8.57
2022-12-11T17:46:21.759Z,9.10
2022-12-11T17:48:49.211Z,10.90
2022-12-11T17:51:24.167Z,11.38
2022-12-11T17:53:51.785Z,10.85
2022-12-11T17:56:19.848Z,10.85
2022-12-11T17:58:46.697Z,10.25
2022-12-11T18:01:13.619Z,10.05
2022-12-11T18:03:40.958Z,11.68
2022-12-11T18:06:11.549Z,11.05
2022-12-11T18:08:38.928Z,11.55
2022-12-11T18:11:07.216Z,11.27
2022-12-11T18:13:34.433Z,12.00
2022-12-11T18:16:04.311Z,11.13
2022-12-11T18:18:31.303Z,11.43
2022-12-11T18:20:58.337Z,10.18
2022-12-11T18:23:25.626Z,9.55
2022-12-11T18:25:52.428Z,10.50
2022-12-11T18:28:19.340Z,10.38
2022-12-11T18:30:46.040Z,8.55
2022-12-11T18:33:13.377Z,10.77
2022-12-11T18:35:40.839Z,11.73
2022-12-11T18:38:07.660Z,11.48
2022-12-11T18:40:34.345Z,11.85
2022-12-11T18:43:01.132Z,14.00
2022-12-11T18:45:27.869Z,12.27
2022-12-11T18:47:56.579Z,11.35
2022-12-11T18:50:23.935Z,9.57
2022-12-11T18:52:57.154Z,9.65
2022-12-11T18:55:24.321Z,9.93
2022-12-11T18:57:51.082Z,11.52
2022-12-11T19:00:18.851Z,11.52
2022-12-11T19:02:45.843Z,11.43
2022-12-11T19:05:13.227Z,11.90
2022-12-11T19:07:40.173Z,9.73
2022-12-11T19:10:07.530Z,12.02
2022-12-11T19:12:34.548Z,9.85
2022-12-11T19:15:01.290Z,9.93
2022-12-11T19:17:28.147Z,11.13
2022-12-11T19:19:54.876Z,12.60
2022-12-11T19:22:21.752Z,11.48
2022-12-11T19:24:48.634Z,12.15
2022-12-11T19:27:15.295Z,10.60
2022-12-11T19:29:42.000Z,11.77
2022-12-11T19:32:10.743Z,9.98
2022-12-11T19:34:39.412Z,10.52
2022-12-11T19:37:06.350Z,12.15
2022-12-11T19:39:33.297Z,9.77
2022-12-11T19:42:00.282Z,12.10
2022-12-11T19:44:27.159Z,12.18
2022-12-11T19:46:53.903Z,12.18
2022-12-11T19:49:20.770Z,10.88
2022-12-11T19:51:47.453Z,11.98
2022-12-11T19:54:18.018Z,10.93
2022-12-11T19:56:45.393Z,12.32
2022-12-11T19:59:16.726Z,11.73
2022-12-11T20:01:46.946Z,12.07
2022-12-11T20:04:16.449Z,11.13
2022-12-11T20:06:45.086Z,12.68
2022-12-11T20:09:13.255Z,11.32
2022-12-11T20:11:43.052Z,11.02
2022-12-11T20:14:17.493Z,12.18
2022-12-11T20:17:10.072Z,12.45
2022-12-11T20:19:34.059Z,11.57
2022-12-11T20:22:01.141Z,12.07
2022-12-11T20:24:27.848Z,10.57
2022-12-11T20:26:57.095Z,12.80
2022-12-11T20:29:24.206Z,11.35
2022-12-11T20:31:52.050Z,11.88
2022-12-11T20:34:18.973Z,12.52
2022-12-11T20:36:48.719Z,12.00
2022-12-11T20:39:15.888Z,10.95
2022-12-11T20:41:42.667Z,10.80
2022-12-11T20:44:09.526Z,12.23
2022-12-11T20:46:36.716Z,11.20
2022-12-11T20:49:03.560Z,11.55
2022-12-11T20:51:32.417Z,12.60
2022-12-11T20:54:09.616Z,10.88
2022-12-11T20:56:36.629Z,11.38
2022-12-11T20:59:03.628Z,11.15
2022-12-11T21:01:32.397Z,12.60
2022-12-11T21:04:08.963Z,11.75
2022-12-11T21:06:38.896Z,13.77
2022-12-11T21:09:10.872Z,12.48
2022-12-11T21:11:37.714Z,12.90
2022-12-11T21:14:07.066Z,12.00
2022-12-11T21:16:34.955Z,12.68
2022-12-11T21:19:16.866Z,12.48
2022-12-11T21:21:46.403Z,10.27
2022-12-11T21:24:23.222Z,11.20
2022-12-11T21:26:50.224Z,11.63
2022-12-11T21:29:17.334Z,13.93
2022-12-11T21:31:46.316Z,12.93
2022-12-11T21:34:14.188Z,10.38
2022-12-11T21:36:43.721Z,12.38
2022-12-11T21:39:12.476Z,12.27
2022-12-11T21:41:40.875Z,9.98
2022-12-11T21:46:54.631Z,11.45
2022-12-11T21:49:21.433Z,10.85
2022-12-11T21:51:48.158Z,12.93
2022-12-11T21:54:17.928Z,11.23
2022-12-11T21:56:47.146Z,11.77
2022-12-11T21:59:14.249Z,12.60
2022-12-11T22:01:42.698Z,12.30
2022-12-11T22:04:10.846Z,12.10
2022-12-11T22:06:37.643Z,10.85
2022-12-11T22:09:05.415Z,12.27
2022-12-11T22:11:34.272Z,12.18
2022-12-11T22:14:01.567Z,10.73
2022-12-11T22:16:28.894Z,12.38
2022-12-11T22:18:55.616Z,12.55
2022-12-11T22:21:22.383Z,10.43
2022-12-11T22:23:49.216Z,12.50
2022-12-11T22:26:21.909Z,10.85
2022-12-11T22:28:49.290Z,12.07
2022-12-11T22:31:19.788Z,12.00
2022-12-11T22:33:47.433Z,12.55
2022-12-11T22:36:14.197Z,11.15
2022-12-11T22:38:40.969Z,11.27
2022-12-11T22:41:22.358Z,12.93
2022-12-11T22:43:49.586Z,10.65
2022-12-11T22:46:18.008Z,13.35
2022-12-11T22:48:44.877Z,11.98
2022-12-11T22:51:12.039Z,11.63
2022-12-11T22:53:38.781Z,11.27
2022-12-11T22:56:07.317Z,11.70
2022-12-11T22:58:35.818Z,13.00
2022-12-11T23:01:03.479Z,11.98
2022-12-11T23:03:30.331Z,11.55
2022-12-11T23:06:00.768Z,11.82
2022-12-11T23:08:30.160Z,11.20
2022-12-11T23:10:56.950Z,11.95
2022-12-11T23:13:23.588Z,12.85
2022-12-11T23:15:50.273Z,11.02
2022-12-11T23:18:16.953Z,12.93
2022-12-11T23:20:43.796Z,13.95
2022-12-11T23:23:11.218Z,12.95
2022-12-11T23:25:37.873Z,11.80
2022-12-11T23:28:04.677Z,14.32
2022-12-11T23:30:31.439Z,13.38
2022-12-11T23:32:58.164Z,11.38
2022-12-11T23:35:24.842Z,13.15
2022-12-11T23:37:51.569Z,12.02
2022-12-11T23:40:18.267Z,13.77
2022-12-11T23:42:44.931Z,13.20
2022-12-11T23:45:11.991Z,11.13
2022-12-11T23:47:38.835Z,13.30
2022-12-11T23:50:05.934Z,12.32
2022-12-11T23:52:32.681Z,13.95
2022-12-11T23:54:59.373Z,12.80
2022-12-11T23:57:26.067Z,11.25
2022-12-11T23:59:52.843Z,11.27
